Time;durP1;ratioP1;P1;durP2;ratioP2;P2;SDS_P1;SDS_P2;PMS_P1;PMS_P2;Temp;Humidity;BMP_temperature;BMP_pressure;BME280_temperature;BME280_humidity;BME280_pressure;Samples;Min_cycle;Max_cycle;Signal;HPM_P1;HPM_P2
2023/09/04 00:01:22;;;;;;;2.38;2.10;;;14.40;88.20;;;;;;4939706;29;20043;-81
2023/09/04 00:03:48;;;;;;;2.92;2.55;;;14.40;88.60;;;;;;4923801;29;20043;-80
2023/09/04 00:06:14;;;;;;;2.63;2.42;;;14.40;88.90;;;;;;4908247;29;20620;-80
2023/09/04 00:08:40;;;;;;;2.85;2.53;;;14.40;88.80;;;;;;4924419;29;20043;-80
2023/09/04 00:11:05;;;;;;;3.40;3.10;;;14.40;88.80;;;;;;4924128;29;20503;-81
2023/09/04 00:13:31;;;;;;;3.83;3.38;;;14.40;88.90;;;;;;4923577;29;20075;-81
2023/09/04 00:15:57;;;;;;;3.63;3.25;;;14.40;88.90;;;;;;4955663;29;20154;-80
2023/09/04 00:18:24;;;;;;;4.15;3.35;;;14.40;88.90;;;;;;4939497;29;20039;-80
2023/09/04 00:20:52;;;;;;;4.38;3.97;;;14.30;88.90;;;;;;4939155;28;20043;-80
2023/09/04 00:23:18;;;;;;;5.30;4.30;;;14.30;89.00;;;;;;4939457;29;20046;-82
2023/09/04 00:25:44;;;;;;;4.25;3.85;;;14.30;89.10;;;;;;4923311;29;20499;-82
2023/09/04 00:28:09;;;;;;;4.60;4.10;;;14.30;89.00;;;;;;4955449;29;20074;-82
2023/09/04 00:30:35;;;;;;;5.30;4.60;;;14.30;89.00;;;;;;4923413;29;20471;-81
2023/09/04 00:33:01;;;;;;;6.32;5.30;;;14.30;89.20;;;;;;4923120;29;20089;-81
2023/09/04 00:35:26;;;;;;;6.78;6.07;;;14.20;89.20;;;;;;4923025;28;20082;-83
2023/09/04 00:37:52;;;;;;;7.20;6.05;;;14.20;89.30;;;;;;4939009;29;20081;-83
2023/09/04 00:40:18;;;;;;;6.90;6.05;;;14.30;89.30;;;;;;4938925;29;20047;-82
2023/09/04 00:42:44;;;;;;;6.38;5.78;;;14.20;89.40;;;;;;4922624;29;20039;-82
2023/09/04 00:45:11;;;;;;;7.20;5.60;;;14.20;89.30;;;;;;4923354;29;20046;-83
2023/09/04 00:47:39;;;;;;;6.15;5.55;;;14.20;89.30;;;;;;4908015;29;20075;-81
2023/09/04 00:50:08;;;;;;;8.45;7.13;;;14.20;89.40;;;;;;4922820;28;20041;-80
2023/09/04 00:52:34;;;;;;;7.40;6.43;;;14.20;89.30;;;;;;4923149;29;20047;-82
2023/09/04 00:55:03;;;;;;;6.72;6.03;;;14.20;89.60;;;;;;4954723;28;20054;-83
2023/09/04 00:57:29;;;;;;;7.40;6.70;;;14.20;89.40;;;;;;4922957;29;20055;-83
2023/09/04 00:59:57;;;;;;;7.15;6.45;;;14.10;89.40;;;;;;4923496;29;20055;-82
2023/09/04 01:02:22;;;;;;;7.75;6.95;;;14.10;89.30;;;;;;4923180;28;20036;-81
2023/09/04 01:04:48;;;;;;;7.95;7.15;;;14.10;89.40;;;;;;4923722;29;20050;-81
2023/09/04 01:07:14;;;;;;;8.15;7.35;;;14.10;89.30;;;;;;4923216;29;20039;-82
2023/09/04 01:09:40;;;;;;;8.00;6.75;;;14.00;89.30;;;;;;4922664;29;20045;-82
2023/09/04 01:12:33;;;;;;;7.85;6.72;;;14.00;89.20;;;;;;4922696;28;20043;-82
2023/09/04 01:15:02;;;;;;;7.90;7.10;;;14.00;89.30;;;;;;4932955;29;20427;-81
2023/09/04 01:17:29;;;;;;;9.50;8.02;;;14.10;89.10;;;;;;4907325;29;20043;-82
2023/09/04 01:19:55;;;;;;;10.73;7.93;;;14.10;89.10;;;;;;4954498;28;20035;-82
2023/09/04 01:22:21;;;;;;;10.00;9.00;;;14.00;89.10;;;;;;4906805;28;20578;-81
2023/09/04 01:24:47;;;;;;;11.73;9.73;;;14.10;89.10;;;;;;4922489;29;20043;-81
2023/09/04 01:27:21;;;;;;;9.77;8.82;;;14.00;89.10;;;;;;4922467;29;20058;-82
2023/09/04 01:29:58;;;;;;;10.68;9.57;;;14.00;89.10;;;;;;4938249;29;20044;-81
2023/09/04 01:32:39;;;;;;;10.95;9.60;;;14.00;89.10;;;;;;4938065;28;20039;-81
2023/09/04 01:35:09;;;;;;;10.23;9.10;;;14.00;89.30;;;;;;4938241;29;20491;-81
2023/09/04 01:37:36;;;;;;;10.85;9.75;;;14.00;89.30;;;;;;4922653;29;20047;-82
2023/09/04 01:40:05;;;;;;;10.70;9.60;;;14.00;89.30;;;;;;4954182;28;20070;-82
2023/09/04 01:42:31;;;;;;;10.38;9.27;;;13.90;89.20;;;;;;4937960;29;20074;-81
2023/09/04 01:45:02;;;;;;;12.40;8.38;;;13.90;89.20;;;;;;4922499;29;20081;-81
2023/09/04 01:47:30;;;;;;;8.00;7.00;;;13.90;89.20;;;;;;4937274;29;20507;-84
2023/09/04 01:49:55;;;;;;;6.43;5.82;;;13.80;89.20;;;;;;4907049;29;20039;-82
2023/09/04 01:52:21;;;;;;;6.22;5.15;;;13.70;89.20;;;;;;4906353;28;20407;-82
2023/09/04 01:54:47;;;;;;;4.95;4.53;;;13.70;89.10;;;;;;4922384;29;20101;-81
2023/09/04 01:57:12;;;;;;;3.63;3.33;;;13.60;89.00;;;;;;4922029;29;20055;-81
2023/09/04 01:59:38;;;;;;;4.88;4.40;;;13.60;89.00;;;;;;4922458;29;20051;-81
2023/09/04 02:02:04;;;;;;;4.38;3.97;;;13.50;89.10;;;;;;4937848;28;20050;-81
2023/09/04 02:04:31;;;;;;;4.90;4.40;;;13.50;89.10;;;;;;4906162;29;20384;-81
2023/09/04 02:06:58;;;;;;;5.43;4.93;;;13.50;89.20;;;;;;4907226;29;20050;-80
2023/09/04 02:09:24;;;;;;;4.38;3.97;;;13.50;89.40;;;;;;4922410;29;20566;-81
2023/09/04 02:11:50;;;;;;;4.30;3.78;;;13.40;89.40;;;;;;4922494;29;20046;-80
2023/09/04 02:14:16;;;;;;;4.65;4.10;;;13.50;89.40;;;;;;4938274;29;20043;-80
2023/09/04 02:16:41;;;;;;;5.63;4.88;;;13.40;89.40;;;;;;4938091;29;20406;-81
2023/09/04 02:19:07;;;;;;;5.45;4.95;;;13.40;89.40;;;;;;4906800;29;20050;-81
2023/09/04 02:21:33;;;;;;;6.57;5.97;;;13.40;89.40;;;;;;4922479;29;20543;-81
2023/09/04 02:23:59;;;;;;;6.32;5.70;;;13.40;89.50;;;;;;4953668;28;20106;-80
2023/09/04 02:26:24;;;;;;;6.68;6.05;;;13.40;89.40;;;;;;4922120;29;20082;-82
2023/09/04 02:28:50;;;;;;;6.85;6.15;;;13.40;89.40;;;;;;4922329;29;20043;-81
2023/09/04 02:31:16;;;;;;;7.93;6.55;;;13.40;89.50;;;;;;4922375;29;20039;-82
2023/09/04 02:33:42;;;;;;;8.60;7.15;;;13.40;89.50;;;;;;4954275;28;20035;-81
2023/09/04 02:36:07;;;;;;;8.00;7.20;;;13.40;89.50;;;;;;4922256;29;20457;-81
2023/09/04 02:38:33;;;;;;;7.82;6.90;;;13.30;89.50;;;;;;4938033;29;20089;-81
2023/09/04 02:40:59;;;;;;;8.18;7.30;;;13.40;89.50;;;;;;4938404;29;20057;-81
2023/09/04 02:43:24;;;;;;;8.98;7.60;;;13.30;89.50;;;;;;4906358;29;20760;-81
2023/09/04 02:45:52;;;;;;;8.43;7.55;;;13.30;89.50;;;;;;4922382;29;20078;-82
2023/09/04 02:48:17;;;;;;;11.77;8.40;;;13.30;89.60;;;;;;4938249;29;20044;-80
2023/09/04 02:50:43;;;;;;;8.50;7.22;;;13.40;89.60;;;;;;4922031;29;20136;-81
2023/09/04 02:53:09;;;;;;;9.50;7.95;;;13.40;89.60;;;;;;4922040;29;20134;-81
2023/09/04 02:55:35;;;;;;;8.32;7.35;;;13.50;89.60;;;;;;4922251;29;20054;-80
2023/09/04 02:58:01;;;;;;;8.43;7.40;;;13.50;89.60;;;;;;4922208;29;20055;-80
2023/09/04 03:00:26;;;;;;;8.48;7.55;;;13.50;89.50;;;;;;4925017;29;20054;-81
2023/09/04 03:02:52;;;;;;;8.00;7.18;;;13.50;89.60;;;;;;4925387;29;20043;-82
2023/09/04 03:05:18;;;;;;;9.98;7.93;;;13.50;89.60;;;;;;4941293;29;20054;-81
2023/09/04 03:07:44;;;;;;;7.50;6.70;;;13.50;89.70;;;;;;4956782;29;20049;-81
2023/09/04 03:10:10;;;;;;;7.88;6.72;;;13.40;89.60;;;;;;4925129;29;20040;-82
2023/09/04 03:12:35;;;;;;;6.82;6.22;;;13.40;89.60;;;;;;4957372;28;20045;-81
2023/09/04 03:15:03;;;;;;;6.97;6.30;;;13.40;89.70;;;;;;4925056;29;20043;-81
2023/09/04 03:17:30;;;;;;;6.65;5.93;;;13.40;89.60;;;;;;4956806;29;20628;-81
2023/09/04 03:19:57;;;;;;;7.47;6.50;;;13.40;89.70;;;;;;4941451;29;20088;-81
2023/09/04 03:22:23;;;;;;;6.80;6.10;;;13.40;89.70;;;;;;4941018;28;20440;-80
2023/09/04 03:24:49;;;;;;;7.75;6.25;;;13.30;89.70;;;;;;4925120;29;20043;-80
2023/09/04 03:27:15;;;;;;;8.25;7.45;;;13.40;90.10;;;;;;4941167;29;20380;-80
2023/09/04 03:29:42;;;;;;;7.95;6.72;;;13.40;89.90;;;;;;4909528;29;20411;-81
2023/09/04 03:32:07;;;;;;;8.45;7.45;;;13.40;89.90;;;;;;4940970;28;20470;-81
2023/09/04 03:34:33;;;;;;;10.23;8.32;;;13.40;89.80;;;;;;4956642;29;20083;-80
2023/09/04 03:36:59;;;;;;;10.02;8.60;;;13.40;89.80;;;;;;4909161;29;20035;-81
2023/09/04 03:39:25;;;;;;;9.45;8.55;;;13.40;89.70;;;;;;4940496;29;20050;-81
2023/09/04 03:41:51;;;;;;;8.68;7.50;;;13.40;89.80;;;;;;4940391;29;20050;-82
2023/09/04 03:44:17;;;;;;;9.35;8.00;;;13.30;89.90;;;;;;4956224;28;20039;-80
2023/09/04 03:46:43;;;;;;;8.85;7.95;;;13.30;89.90;;;;;;4940883;29;20047;-80
2023/09/04 03:49:09;;;;;;;9.00;8.10;;;13.30;90.00;;;;;;4909139;29;20404;-79
2023/09/04 03:51:34;;;;;;;10.30;8.27;;;13.30;90.00;;;;;;4909179;29;20043;-82
2023/09/04 03:54:03;;;;;;;10.18;7.57;;;13.30;90.00;;;;;;4908809;29;20047;-81
2023/09/04 03:56:30;;;;;;;9.43;8.48;;;13.30;90.00;;;;;;4943294;28;20039;-80
2023/09/04 03:58:56;;;;;;;8.82;7.43;;;13.30;90.10;;;;;;4959556;28;20055;-82
2023/09/04 04:01:22;;;;;;;9.35;8.45;;;13.30;90.10;;;;;;4959631;28;20462;-80
2023/09/04 04:03:49;;;;;;;9.68;8.48;;;13.30;90.10;;;;;;4943204;28;20074;-81
2023/09/04 04:06:14;;;;;;;13.98;8.18;;;13.30;90.10;;;;;;4943132;28;20042;-81
2023/09/04 04:08:40;;;;;;;9.27;8.27;;;13.30;90.20;;;;;;4942955;28;20090;-81
2023/09/04 04:11:06;;;;;;;9.52;8.10;;;13.20;90.20;;;;;;4942462;28;20049;-83
2023/09/04 04:13:32;;;;;;;8.82;8.02;;;13.20;90.20;;;;;;4927348;28;20043;-80
2023/09/04 04:15:59;;;;;;;8.43;7.40;;;13.20;90.20;;;;;;4927331;28;20050;-81
2023/09/04 04:18:26;;;;;;;8.90;7.88;;;13.20;90.20;;;;;;4943351;28;20396;-81
2023/09/04 04:20:55;;;;;;;7.78;6.95;;;13.10;90.20;;;;;;4927897;28;20129;-83
2023/09/04 04:23:21;;;;;;;7.50;6.15;;;13.10;90.20;;;;;;4943074;28;20042;-82
2023/09/04 04:25:51;;;;;;;5.35;4.35;;;13.00;90.10;;;;;;4927258;28;20556;-81
2023/09/04 04:28:22;;;;;;;4.47;3.28;;;13.00;90.10;;;;;;4943526;28;20047;-81
2023/09/04 04:30:47;;;;;;;2.88;2.50;;;12.90;90.00;;;;;;4942662;28;20046;-80
2023/09/04 04:33:13;;;;;;;2.50;2.00;;;12.80;90.00;;;;;;4958608;28;20105;-80
2023/09/04 04:35:39;;;;;;;2.03;1.83;;;12.70;89.90;;;;;;4926692;28;20086;-79
2023/09/04 04:38:06;;;;;;;3.75;1.95;;;12.60;89.90;;;;;;4942908;28;20394;-80
2023/09/04 04:40:32;;;;;;;5.13;1.90;;;12.60;89.90;;;;;;4942293;28;20050;-79
2023/09/04 04:42:58;;;;;;;4.18;2.47;;;12.50;90.00;;;;;;4942429;28;20043;-80
2023/09/04 04:45:24;;;;;;;2.85;1.95;;;12.50;90.00;;;;;;4926937;28;20054;-81
2023/09/04 04:47:49;;;;;;;2.22;1.90;;;12.50;90.00;;;;;;4942556;28;20380;-80
2023/09/04 04:50:15;;;;;;;2.55;1.55;;;12.50;90.10;;;;;;4927284;28;20045;-80
2023/09/04 04:52:41;;;;;;;2.00;1.70;;;12.50;90.10;;;;;;4942620;28;20491;-79
2023/09/04 04:55:07;;;;;;;3.33;1.55;;;12.50;90.20;;;;;;4911148;28;20059;-81
2023/09/04 04:57:33;;;;;;;1.40;1.23;;;12.40;90.30;;;;;;4923344;29;20066;-80
2023/09/04 04:59:59;;;;;;;1.75;1.30;;;12.40;90.70;;;;;;4923461;29;20086;-78
2023/09/04 05:02:25;;;;;;;1.38;1.27;;;12.50;90.90;;;;;;4923393;29;20055;-79
2023/09/04 05:04:51;;;;;;;1.88;1.65;;;12.50;90.60;;;;;;4955141;29;20522;-80
2023/09/04 05:07:17;;;;;;;2.00;1.80;;;12.50;90.50;;;;;;4923111;29;20492;-79
2023/09/04 05:09:43;;;;;;;2.65;2.00;;;12.40;90.40;;;;;;4939467;29;20047;-80
2023/09/04 05:12:08;;;;;;;2.30;2.10;;;12.40;90.50;;;;;;4938951;28;20491;-79
2023/09/04 05:14:34;;;;;;;2.35;2.15;;;12.50;90.60;;;;;;4923015;29;20121;-80
2023/09/04 05:17:00;;;;;;;3.47;2.53;;;12.40;90.40;;;;;;4923207;29;20042;-80
2023/09/04 05:19:28;;;;;;;3.30;2.63;;;12.40;90.50;;;;;;4938193;29;20538;-79
2023/09/04 05:21:54;;;;;;;3.10;2.80;;;12.40;90.60;;;;;;4937692;28;20047;-80
2023/09/04 05:24:20;;;;;;;3.50;3.20;;;12.40;90.60;;;;;;4952752;29;20043;-79
2023/09/04 05:26:46;;;;;;;4.00;3.47;;;12.50;90.60;;;;;;4954171;29;20047;-80
2023/09/04 05:29:12;;;;;;;4.55;3.38;;;12.50;90.70;;;;;;4907147;29;20471;-79
2023/09/04 05:31:38;;;;;;;6.05;4.68;;;12.50;90.70;;;;;;4922394;29;20071;-78
2023/09/04 05:34:03;;;;;;;4.93;4.20;;;12.50;90.80;;;;;;4954291;29;20133;-79
2023/09/04 05:36:29;;;;;;;4.65;4.15;;;12.50;90.80;;;;;;4938115;29;20439;-79
2023/09/04 05:38:55;;;;;;;5.13;4.63;;;12.50;90.80;;;;;;4953839;28;20442;-79
2023/09/04 05:41:20;;;;;;;4.80;4.30;;;12.50;90.90;;;;;;4938199;29;20054;-81
2023/09/04 05:43:46;;;;;;;4.95;4.50;;;12.60;90.90;;;;;;4945129;28;20169;-81
2023/09/04 05:46:12;;;;;;;6.07;4.82;;;12.60;90.90;;;;;;4921422;28;20047;-78
2023/09/04 05:48:37;;;;;;;5.38;4.35;;;12.70;90.90;;;;;;4936859;29;20075;-80
2023/09/04 05:51:03;;;;;;;5.28;4.78;;;12.70;90.90;;;;;;4921687;29;20039;-79
2023/09/04 05:53:29;;;;;;;5.55;5.05;;;12.70;90.90;;;;;;4922037;29;20054;-80
2023/09/04 05:56:05;;;;;;;6.53;5.07;;;12.80;90.90;;;;;;4937441;29;20051;-81
2023/09/04 05:58:31;;;;;;;5.38;4.82;;;12.80;90.80;;;;;;4937528;29;20051;-80
2023/09/04 06:00:57;;;;;;;6.40;5.57;;;12.90;90.90;;;;;;4921523;29;20090;-81
2023/09/04 06:03:23;;;;;;;5.60;5.10;;;12.90;90.90;;;;;;4947276;29;20074;-77
2023/09/04 06:05:49;;;;;;;6.78;5.68;;;12.90;91.00;;;;;;4937410;29;20040;-81
2023/09/04 06:08:15;;;;;;;8.02;5.38;;;13.00;90.90;;;;;;4937067;29;20106;-80
2023/09/04 06:10:41;;;;;;;6.97;6.25;;;13.00;90.90;;;;;;4952543;29;20040;-81
2023/09/04 06:13:06;;;;;;;7.45;6.30;;;13.10;91.00;;;;;;4954448;28;20043;-81
2023/09/04 06:15:32;;;;;;;7.40;5.82;;;13.20;91.00;;;;;;4906239;29;20411;-82
2023/09/04 06:17:58;;;;;;;7.20;6.50;;;13.20;91.00;;;;;;4906214;29;20043;-83
2023/09/04 06:20:24;;;;;;;7.03;6.20;;;13.30;91.00;;;;;;4906395;29;20047;-83
2023/09/04 06:22:49;;;;;;;7.70;6.35;;;13.40;91.10;;;;;;4921755;29;20074;-79
2023/09/04 06:25:15;;;;;;;9.07;7.88;;;13.50;91.10;;;;;;4906185;29;20066;-85
2023/09/04 06:27:41;;;;;;;10.13;7.93;;;13.50;91.20;;;;;;4921912;29;20066;-81
2023/09/04 06:30:07;;;;;;;11.27;9.75;;;13.60;91.20;;;;;;4921636;29;20480;-81
2023/09/04 06:32:32;;;;;;;13.80;10.43;;;13.70;91.20;;;;;;4906456;29;20043;-83
2023/09/04 06:34:59;;;;;;;10.07;9.02;;;13.80;91.20;;;;;;4908242;29;20491;-78
2023/09/04 06:37:25;;;;;;;10.77;9.48;;;14.00;91.30;;;;;;4941305;29;20051;-80
2023/09/04 06:39:50;;;;;;;11.32;10.13;;;14.10;91.20;;;;;;4957346;28;20050;-80
2023/09/04 06:42:16;;;;;;;14.38;11.57;;;14.30;91.20;;;;;;4956887;28;20043;-79
2023/09/04 06:44:42;;;;;;;12.18;10.85;;;14.50;92.20;;;;;;4939402;28;20386;-82
2023/09/04 06:47:09;;;;;;;12.95;11.48;;;14.50;91.70;;;;;;4923386;29;20051;-81
2023/09/04 06:49:34;;;;;;;13.32;11.93;;;14.70;91.30;;;;;;4916024;28;20035;-79
2023/09/04 06:52:00;;;;;;;14.15;10.82;;;14.70;91.50;;;;;;4944074;28;20498;-80
2023/09/04 06:54:26;;;;;;;14.15;10.48;;;14.90;91.30;;;;;;4938163;28;20055;-82
2023/09/04 06:56:52;;;;;;;12.43;11.05;;;15.00;91.30;;;;;;4957245;28;20067;-80
2023/09/04 06:59:18;;;;;;;12.05;10.88;;;15.00;91.00;;;;;;4939930;28;20055;-80
2023/09/04 07:01:43;;;;;;;12.35;11.15;;;15.00;90.90;;;;;;4941517;28;20047;-78
2023/09/04 07:04:10;;;;;;;11.20;10.10;;;15.20;91.00;;;;;;4924050;28;20110;-81
2023/09/04 07:06:35;;;;;;;11.90;10.70;;;15.30;91.00;;;;;;4927670;28;20041;-80
2023/09/04 07:09:01;;;;;;;12.05;10.73;;;15.40;90.90;;;;;;4942671;28;20047;-81
2023/09/04 07:11:27;;;;;;;10.55;9.45;;;15.50;90.80;;;;;;4926477;28;20471;-82
2023/09/04 07:13:53;;;;;;;13.02;10.80;;;15.50;90.50;;;;;;4924500;29;20546;-80
2023/09/04 07:16:18;;;;;;;12.68;10.98;;;15.70;90.60;;;;;;4923638;29;20078;-81
2023/09/04 07:18:44;;;;;;;11.60;10.30;;;15.80;90.50;;;;;;4924587;29;20039;-81
2023/09/04 07:21:10;;;;;;;12.63;10.25;;;16.00;90.50;;;;;;4940201;29;20043;-83
2023/09/04 07:23:35;;;;;;;11.90;10.27;;;16.00;90.20;;;;;;4907607;29;20106;-83
2023/09/04 07:26:01;;;;;;;11.02;9.93;;;16.10;90.20;;;;;;4923976;28;20043;-82
2023/09/04 07:28:27;;;;;;;14.10;10.10;;;16.20;90.00;;;;;;4940073;29;20399;-82
2023/09/04 07:31:17;;;;;;;12.15;10.82;;;16.40;89.80;;;;;;4940593;29;20130;-83
2023/09/04 07:33:43;;;;;;;13.48;9.88;;;16.50;89.80;;;;;;4956658;29;20127;-81
2023/09/04 07:36:09;;;;;;;11.93;9.65;;;16.60;89.40;;;;;;4924791;29;20043;-82
2023/09/04 07:38:35;;;;;;;11.75;10.25;;;16.70;89.20;;;;;;4940821;29;20043;-81
2023/09/04 07:41:03;;;;;;;13.52;10.48;;;16.80;89.10;;;;;;4940832;29;20397;-81
2023/09/04 07:43:30;;;;;;;11.93;10.07;;;16.90;89.10;;;;;;4940470;29;20055;-81
2023/09/04 07:45:56;;;;;;;11.07;9.98;;;17.00;88.90;;;;;;4923740;29;20047;-85
2023/09/04 07:48:22;;;;;;;11.40;9.35;;;17.10;88.80;;;;;;4940602;29;20051;-83
2023/09/04 07:50:48;;;;;;;9.82;8.85;;;17.30;88.70;;;;;;4924710;29;20047;-82
2023/09/04 07:53:14;;;;;;;9.57;8.32;;;17.40;88.20;;;;;;4924715;29;20043;-81
2023/09/04 07:55:42;;;;;;;9.43;7.68;;;17.50;88.00;;;;;;4940371;29;20043;-80
2023/09/04 07:58:08;;;;;;;9.25;8.35;;;17.60;87.00;;;;;;4939951;29;20138;-78
2023/09/04 08:00:34;;;;;;;11.13;8.75;;;17.70;86.00;;;;;;4939958;29;20121;-79
2023/09/04 08:02:59;;;;;;;8.88;7.88;;;17.80;86.40;;;;;;4957724;28;20050;-80
2023/09/04 08:05:25;;;;;;;9.45;7.45;;;17.90;86.50;;;;;;4943387;28;20161;-80
2023/09/04 08:07:51;;;;;;;7.93;7.03;;;18.00;86.50;;;;;;4931204;28;20035;-77
2023/09/04 08:10:17;;;;;;;7.65;6.82;;;18.20;85.90;;;;;;4960703;28;20047;-80
2023/09/04 08:12:42;;;;;;;8.77;7.88;;;18.20;85.60;;;;;;4942751;28;20049;-78
2023/09/04 08:15:10;;;;;;;8.73;7.82;;;18.40;84.70;;;;;;4945012;28;20094;-77
2023/09/04 08:17:36;;;;;;;7.45;6.70;;;18.50;85.30;;;;;;4955577;28;20051;-79
2023/09/04 08:20:02;;;;;;;9.75;7.28;;;18.60;84.00;;;;;;4939549;29;20078;-80
2023/09/04 08:22:27;;;;;;;7.97;6.32;;;18.70;84.10;;;;;;4939514;29;20094;-80
2023/09/04 08:24:56;;;;;;;8.50;6.55;;;18.90;84.10;;;;;;4923941;29;20106;-80
2023/09/04 08:27:22;;;;;;;7.35;5.30;;;19.00;83.90;;;;;;4924064;29;20467;-79
2023/09/04 08:29:51;;;;;;;6.38;5.07;;;19.10;83.30;;;;;;4939287;29;20082;-80
2023/09/04 08:32:17;;;;;;;6.63;6.03;;;19.20;83.00;;;;;;4938458;29;20043;-80
2023/09/04 08:34:42;;;;;;;6.80;5.68;;;19.30;82.50;;;;;;4923309;29;20094;-79
2023/09/04 08:37:08;;;;;;;6.70;5.25;;;19.40;81.70;;;;;;4938041;29;20043;-77
2023/09/04 08:39:34;;;;;;;6.13;5.53;;;19.50;82.10;;;;;;4938760;29;20039;-79
2023/09/04 08:42:02;;;;;;;6.95;5.28;;;19.60;81.30;;;;;;4954958;28;20043;-79
2023/09/04 08:44:30;;;;;;;7.20;5.63;;;19.70;81.80;;;;;;4954659;29;20496;-79
2023/09/04 08:46:58;;;;;;;9.13;5.88;;;19.90;80.80;;;;;;4922981;29;20083;-80
2023/09/04 08:49:25;;;;;;;7.07;5.22;;;20.00;80.80;;;;;;4938981;28;20047;-79
2023/09/04 08:51:52;;;;;;;5.30;4.80;;;20.00;80.20;;;;;;4938834;28;20458;-79
2023/09/04 08:54:18;;;;;;;7.70;4.93;;;20.20;79.90;;;;;;4938469;29;20051;-80
2023/09/04 08:56:44;;;;;;;5.03;4.43;;;20.30;79.90;;;;;;4909309;28;20101;-81
2023/09/04 08:59:10;;;;;;;5.97;4.45;;;20.40;79.30;;;;;;4941646;28;20058;-80
2023/09/04 09:01:37;;;;;;;5.07;4.57;;;20.50;79.10;;;;;;4957842;28;20054;-79
2023/09/04 09:04:05;;;;;;;7.57;4.55;;;20.50;78.00;;;;;;4941807;28;20053;-79
2023/09/04 09:06:32;;;;;;;3.85;3.42;;;20.60;78.60;;;;;;4941645;28;20077;-80
2023/09/04 09:08:59;;;;;;;6.15;4.95;;;20.70;78.20;;;;;;4957548;28;20039;-79
2023/09/04 09:11:25;;;;;;;10.63;4.65;;;20.80;77.60;;;;;;4941825;28;20043;-81
2023/09/04 09:13:50;;;;;;;7.45;4.30;;;20.90;77.40;;;;;;4941479;28;20384;-81
2023/09/04 09:16:20;;;;;;;7.35;4.20;;;21.00;77.00;;;;;;4925700;28;20082;-81
2023/09/04 09:18:47;;;;;;;4.22;3.83;;;21.10;76.70;;;;;;4957389;28;20101;-81
2023/09/04 09:21:31;;;;;;;4.68;3.70;;;21.10;75.10;;;;;;4941515;28;20043;-81
2023/09/04 09:24:19;;;;;;;5.57;3.90;;;21.30;75.60;;;;;;4941435;28;20065;-80
2023/09/04 09:26:47;;;;;;;6.60;3.88;;;21.40;75.40;;;;;;4941557;28;20533;-78
2023/09/04 09:29:13;;;;;;;5.00;4.50;;;21.50;75.40;;;;;;4941321;28;20043;-79
2023/09/04 09:31:42;;;;;;;4.93;3.95;;;21.50;73.50;;;;;;4941347;28;20042;-78
2023/09/04 09:34:09;;;;;;;7.20;4.05;;;21.60;74.10;;;;;;4941123;28;20039;-78
2023/09/04 09:36:35;;;;;;;4.60;3.80;;;21.70;73.40;;;;;;4941386;28;20495;-78
2023/09/04 09:39:02;;;;;;;3.78;3.40;;;21.90;73.30;;;;;;4941168;28;20059;-80
2023/09/04 09:41:32;;;;;;;3.83;2.65;;;21.90;72.40;;;;;;4925329;28;20051;-79
2023/09/04 09:44:03;;;;;;;6.07;3.15;;;21.90;71.80;;;;;;4941145;28;20042;-79
2023/09/04 09:46:29;;;;;;;5.35;3.20;;;22.10;71.80;;;;;;4941817;28;20415;-79
2023/09/04 09:48:55;;;;;;;7.47;3.90;;;22.20;71.70;;;;;;4925451;28;20047;-80
2023/09/04 09:51:21;;;;;;;3.60;3.30;;;22.40;71.60;;;;;;4925674;28;20130;-80
2023/09/04 09:53:52;;;;;;;4.25;3.42;;;22.40;71.00;;;;;;4925526;28;20093;-79
2023/09/04 09:56:19;;;;;;;3.65;3.22;;;22.50;71.10;;;;;;4957185;28;20126;-79
2023/09/04 09:58:47;;;;;;;4.40;3.85;;;22.50;69.90;;;;;;4940879;28;20114;-80
2023/09/04 10:01:14;;;;;;;4.15;3.47;;;22.40;68.20;;;;;;4957303;28;20047;-79
2023/09/04 10:03:40;;;;;;;4.72;3.25;;;22.50;69.50;;;;;;4940961;28;20039;-80
2023/09/04 10:06:08;;;;;;;4.20;3.17;;;22.60;69.90;;;;;;4941326;28;20526;-80
2023/09/04 10:08:40;;;;;;;3.90;2.95;;;22.80;69.50;;;;;;4941689;28;20070;-80
2023/09/04 10:11:09;;;;;;;3.83;2.50;;;22.80;68.80;;;;;;4945137;28;20038;-81
2023/09/04 10:13:43;;;;;;;4.15;2.65;;;22.90;69.20;;;;;;4960835;28;20057;-81
2023/09/04 10:16:15;;;;;;;6.18;3.33;;;23.00;68.80;;;;;;4945012;28;20047;-80
2023/09/04 10:18:44;;;;;;;4.20;3.35;;;22.90;67.40;;;;;;4960996;28;20133;-80
2023/09/04 10:21:14;;;;;;;4.15;3.47;;;23.00;68.50;;;;;;4944959;28;20201;-80
2023/09/04 10:23:48;;;;;;;3.83;3.08;;;23.10;68.40;;;;;;4960629;28;20050;-80
2023/09/04 10:26:27;;;;;;;5.90;3.58;;;23.20;68.10;;;;;;4945174;28;20058;-79
2023/09/04 10:29:16;;;;;;;3.45;3.13;;;23.30;65.70;;;;;;4960775;28;20380;-79
2023/09/04 10:31:43;;;;;;;4.07;2.80;;;23.40;65.90;;;;;;4944924;28;20039;-80
2023/09/04 10:34:10;;;;;;;4.47;3.55;;;23.50;66.70;;;;;;4960688;28;20097;-81
2023/09/04 10:36:37;;;;;;;4.90;3.25;;;23.80;66.50;;;;;;4944734;28;20137;-80
2023/09/04 10:39:03;;;;;;;4.43;3.13;;;23.90;65.40;;;;;;4960478;28;20042;-81
2023/09/04 10:41:31;;;;;;;3.95;3.15;;;24.10;65.70;;;;;;4960457;28;20042;-80
2023/09/04 10:43:57;;;;;;;3.03;2.28;;;24.10;65.20;;;;;;4944381;28;20376;-81
2023/09/04 10:46:23;;;;;;;4.18;2.97;;;24.30;65.00;;;;;;4944410;28;20045;-81
2023/09/04 10:48:53;;;;;;;4.60;3.00;;;24.40;64.50;;;;;;4944799;28;20387;-80
2023/09/04 10:51:28;;;;;;;3.08;2.67;;;24.50;64.10;;;;;;4960533;28;20039;-81
2023/09/04 10:53:56;;;;;;;3.42;2.55;;;24.70;63.50;;;;;;4944369;28;20074;-80
2023/09/04 10:56:22;;;;;;;2.88;2.55;;;24.80;63.30;;;;;;4928322;28;20442;-81
2023/09/04 10:59:06;;;;;;;3.28;2.80;;;24.80;63.00;;;;;;4928047;28;20050;-81
2023/09/04 11:01:36;;;;;;;;;;;24.80;59.90;;;;;;4944598;28;20050;-80
2023/09/04 11:04:09;;;;;;;3.45;2.60;;;24.90;62.60;;;;;;4960122;28;19925;-81
2023/09/04 11:06:40;;;;;;;3.33;2.38;;;24.90;62.30;;;;;;4944310;28;20035;-80
2023/09/04 11:09:11;;;;;;;3.20;2.10;;;25.10;62.00;;;;;;4944132;28;20073;-81
2023/09/04 11:11:38;;;;;;;2.75;2.40;;;25.20;62.30;;;;;;4960485;28;20055;-81
2023/09/04 11:14:11;;;;;;;2.75;2.08;;;25.10;61.40;;;;;;4928244;28;20053;-81
2023/09/04 11:16:42;;;;;;;3.15;2.70;;;25.10;61.80;;;;;;4945174;28;20129;-79
2023/09/04 11:19:13;;;;;;;2.08;1.90;;;25.20;61.30;;;;;;4960434;28;20086;-80
2023/09/04 11:21:43;;;;;;;3.30;2.17;;;25.20;59.90;;;;;;4943820;28;20141;-81
2023/09/04 11:24:09;;;;;;;4.47;1.90;;;25.20;60.20;;;;;;4943785;28;20115;-80
2023/09/04 11:26:36;;;;;;;3.85;2.15;;;25.30;60.10;;;;;;4960067;28;20035;-81
2023/09/04 11:29:03;;;;;;;3.47;1.80;;;25.40;60.60;;;;;;4943581;28;20101;-79
2023/09/04 11:31:31;;;;;;;2.67;2.00;;;25.50;59.40;;;;;;4943889;28;20043;-80
2023/09/04 11:33:57;;;;;;;4.18;2.17;;;25.80;59.90;;;;;;4943542;28;20046;-81
2023/09/04 11:36:24;;;;;;;5.40;2.30;;;25.80;58.30;;;;;;4943644;28;20431;-80
2023/09/04 11:39:08;;;;;;;3.00;2.03;;;25.90;58.60;;;;;;4959750;28;20078;-81
2023/09/04 11:41:34;;;;;;;2.70;1.80;;;26.00;57.50;;;;;;4959375;28;20043;-81
2023/09/04 11:44:01;;;;;;;3.72;2.03;;;26.10;58.30;;;;;;4911816;28;20218;-81
2023/09/04 11:46:27;;;;;;;3.53;2.25;;;26.20;57.90;;;;;;4943502;28;20039;-80
2023/09/04 11:48:53;;;;;;;3.92;2.08;;;26.30;56.80;;;;;;4959233;28;20046;-80
2023/09/04 11:51:19;;;;;;;3.10;2.20;;;26.20;56.80;;;;;;4927735;28;20130;-81
2023/09/04 11:53:45;;;;;;;2.35;2.10;;;26.20;56.30;;;;;;4959109;28;20034;-80
2023/09/04 11:56:11;;;;;;;2.13;1.83;;;26.10;55.00;;;;;;4927420;28;20042;-81
2023/09/04 11:58:38;;;;;;;2.28;1.75;;;26.10;56.20;;;;;;4927186;28;20061;-81
2023/09/04 12:01:04;;;;;;;2.75;2.10;;;26.20;55.70;;;;;;4958989;28;20506;-80
2023/09/04 12:03:29;;;;;;;2.63;2.30;;;26.30;56.00;;;;;;4943198;28;20039;-80
2023/09/04 12:05:56;;;;;;;2.80;2.50;;;26.40;55.70;;;;;;4927571;28;20534;-81
2023/09/04 12:08:22;;;;;;;2.42;2.00;;;26.40;55.80;;;;;;4958913;28;20616;-80
2023/09/04 12:10:50;;;;;;;3.85;2.50;;;26.50;56.50;;;;;;4958929;28;20039;-80
2023/09/04 12:13:16;;;;;;;3.10;1.83;;;26.70;55.90;;;;;;4958883;28;20065;-80
2023/09/04 12:15:42;;;;;;;3.08;2.17;;;26.80;55.10;;;;;;4927056;28;20043;-80
2023/09/04 12:18:10;;;;;;;3.53;2.00;;;27.00;54.70;;;;;;4943148;28;20054;-80
2023/09/04 12:20:41;;;;;;;2.75;2.30;;;27.10;54.20;;;;;;4942682;28;20093;-81
2023/09/04 12:23:07;;;;;;;3.30;2.00;;;27.20;54.00;;;;;;4942609;28;20049;-80
2023/09/04 12:25:36;;;;;;;3.15;2.05;;;27.40;54.10;;;;;;4958998;28;20039;-80
2023/09/04 12:28:04;;;;;;;4.15;2.55;;;27.50;54.10;;;;;;4942787;28;20399;-80
2023/09/04 12:30:32;;;;;;;2.33;2.10;;;27.30;52.80;;;;;;4958745;28;20399;-80
2023/09/04 12:32:58;;;;;;;2.80;2.50;;;27.50;52.70;;;;;;4958061;28;20134;-79
2023/09/04 12:35:24;;;;;;;2.78;2.53;;;27.60;53.30;;;;;;4942634;28;20133;-80
2023/09/04 12:37:52;;;;;;;7.40;2.10;;;27.70;53.50;;;;;;4926560;28;20081;-79
2023/09/04 12:40:19;;;;;;;4.45;2.40;;;27.80;53.10;;;;;;4942339;28;20492;-80
2023/09/04 12:42:45;;;;;;;2.47;1.98;;;28.00;52.80;;;;;;4942681;28;20177;-80
2023/09/04 12:45:10;;;;;;;3.47;2.80;;;28.30;53.40;;;;;;4942417;28;20493;-79